createdAt,value
2022-09-12T00:03:06.152Z,-128.00
2022-09-12T00:08:07.887Z,-128.00
2022-09-12T00:13:11.271Z,-128.00
2022-09-12T00:18:16.019Z,-128.00
2022-09-12T00:23:17.796Z,-128.00
2022-09-12T00:28:19.950Z,-128.00
2022-09-12T00:33:21.712Z,-128.00
2022-09-12T00:38:23.417Z,-128.00
2022-09-12T00:43:41.714Z,-128.00
2022-09-12T00:48:50.383Z,-128.00
2022-09-12T00:53:54.952Z,-128.00
2022-09-12T00:59:11.037Z,-128.00
2022-09-12T01:04:13.535Z,-128.00
2022-09-12T01:09:18.286Z,-128.00
2022-09-12T01:14:21.297Z,-128.00
2022-09-12T01:19:51.464Z,-128.00
2022-09-12T01:25:15.111Z,-128.00
2022-09-12T01:30:38.809Z,-128.00
2022-09-12T01:35:59.288Z,-128.00
2022-09-12T01:41:39.220Z,-128.00
2022-09-12T01:47:05.559Z,-128.00
2022-09-12T01:52:13.556Z,-128.00
2022-09-12T01:57:25.991Z,-128.00
2022-09-12T02:02:38.780Z,-128.00
2022-09-12T02:08:01.488Z,-128.00
2022-09-12T02:13:18.101Z,-128.00
2022-09-12T02:18:21.209Z,-128.00
2022-09-12T02:23:28.407Z,-128.00
2022-09-12T02:28:35.211Z,-128.00
2022-09-12T02:33:49.259Z,-128.00
2022-09-12T02:38:51.648Z,-128.00
2022-09-12T02:43:54.052Z,-128.00
2022-09-12T02:48:56.820Z,-128.00
2022-09-12T02:53:59.644Z,-128.00
2022-09-12T02:59:07.070Z,-128.00
2022-09-12T03:04:33.625Z,-128.00
2022-09-12T03:09:59.879Z,-128.00
2022-09-12T03:15:41.178Z,-128.00
2022-09-12T03:21:12.837Z,-128.00
2022-09-12T03:26:23.290Z,-128.00
2022-09-12T03:31:46.212Z,-128.00
2022-09-12T03:36:58.822Z,-128.00
2022-09-12T03:42:00.664Z,-128.00
2022-09-12T03:47:02.453Z,-128.00
2022-09-12T03:52:04.125Z,-128.00
2022-09-12T03:57:05.922Z,-128.00
2022-09-12T04:02:18.355Z,-128.00
2022-09-12T04:07:27.113Z,-128.00
2022-09-12T04:12:30.216Z,-128.00
2022-09-12T04:17:34.780Z,-128.00
2022-09-12T04:22:36.611Z,-128.00
2022-09-12T04:27:38.544Z,-128.00
2022-09-12T04:32:41.515Z,-128.00
2022-09-12T04:37:43.187Z,-128.00
2022-09-12T04:42:58.716Z,-128.00
2022-09-12T04:48:00.989Z,-128.00
2022-09-12T04:53:02.662Z,-128.00
2022-09-12T04:58:04.552Z,-128.00
2022-09-12T05:03:06.242Z,-128.00
2022-09-12T05:08:08.479Z,-128.00
2022-09-12T05:13:10.140Z,-128.00
2022-09-12T05:18:12.086Z,-128.00
2022-09-12T05:23:13.756Z,-128.00
2022-09-12T05:28:15.437Z,-128.00
2022-09-12T05:33:17.155Z,-128.00
2022-09-12T05:38:18.867Z,-128.00
2022-09-12T05:43:20.659Z,-128.00
2022-09-12T05:48:30.271Z,-128.00
2022-09-12T05:53:32.751Z,-128.00
2022-09-12T05:58:57.258Z,-128.00
2022-09-12T06:04:06.763Z,-128.00
2022-09-12T06:09:09.586Z,-128.00
2022-09-12T06:14:13.463Z,-128.00
2022-09-12T06:19:20.367Z,-128.00
2022-09-12T06:24:22.672Z,-128.00
2022-09-12T06:29:24.322Z,-128.00
2022-09-12T06:34:27.475Z,-128.00
2022-09-12T06:39:29.621Z,-128.00
2022-09-12T06:44:31.733Z,-128.00
2022-09-12T06:49:33.782Z,-128.00
2022-09-12T06:54:35.559Z,-128.00
2022-09-12T07:02:37.050Z,15.02
2022-09-12T07:07:39.025Z,15.34
2022-09-12T07:12:40.940Z,15.48
2022-09-12T07:17:59.718Z,15.80
2022-09-12T07:23:01.578Z,16.16
2022-09-12T07:28:23.719Z,16.63
2022-09-12T07:33:28.564Z,16.30
2022-09-12T07:38:30.942Z,16.62
2022-09-12T07:43:52.714Z,16.52
2022-09-12T07:49:08.983Z,16.28
2022-09-12T07:54:10.963Z,16.24
2022-09-12T07:59:13.620Z,16.57
2022-09-12T08:04:15.896Z,16.52
2022-09-12T08:09:17.869Z,16.39
2022-09-12T08:14:19.525Z,16.64
2022-09-12T08:19:22.822Z,16.66
2022-09-12T08:24:25.122Z,16.49
2022-09-12T08:29:27.054Z,16.70
2022-09-12T08:34:48.727Z,16.89
2022-09-12T08:40:15.299Z,16.85
2022-09-12T08:45:34.233Z,16.94
2022-09-12T08:50:36.157Z,17.54
2022-09-12T08:55:42.668Z,18.06
2022-09-12T09:01:00.109Z,18.60
2022-09-12T09:06:18.503Z,18.86
2022-09-12T09:11:48.061Z,18.50
2022-09-12T09:16:53.221Z,17.95
2022-09-12T09:21:59.981Z,18.39
2022-09-12T09:27:23.592Z,19.02
2022-09-12T09:32:37.507Z,19.25
2022-09-12T09:37:43.967Z,19.33
2022-09-12T09:42:54.077Z,19.07
2022-09-12T09:48:10.940Z,18.78
2022-09-12T09:53:39.585Z,18.83
2022-09-12T09:58:41.570Z,18.88
2022-09-12T10:03:54.623Z,19.00
2022-09-12T10:09:24.828Z,18.91
2022-09-12T10:14:42.828Z,19.00
2022-09-12T10:19:49.836Z,19.14
2022-09-12T10:25:01.931Z,18.85
2022-09-12T10:30:04.818Z,18.78
2022-09-12T10:35:43.977Z,19.67
2022-09-12T10:40:45.696Z,19.71
2022-09-12T10:45:47.466Z,20.03
2022-09-12T10:50:49.478Z,20.32
2022-09-12T10:56:01.960Z,20.45
2022-09-12T11:01:19.150Z,19.92
2022-09-12T11:06:30.638Z,19.58
2022-09-12T11:12:28.041Z,18.91
2022-09-12T11:18:05.378Z,18.93
2022-09-12T11:23:36.850Z,18.91
2022-09-12T11:28:51.406Z,19.43
2022-09-12T11:33:56.650Z,19.91
2022-09-12T11:39:03.975Z,20.15
2022-09-12T11:44:24.164Z,20.16
2022-09-12T11:49:48.979Z,19.24
2022-09-12T11:55:01.019Z,19.21
2022-09-12T12:00:03.259Z,19.25
2022-09-12T12:05:22.563Z,19.65
2022-09-12T12:10:25.189Z,20.16
2022-09-12T12:15:28.512Z,19.80
2022-09-12T12:20:30.767Z,20.06
2022-09-12T12:25:53.328Z,21.03
2022-09-12T12:30:55.164Z,22.01
2022-09-12T12:36:21.783Z,21.87
2022-09-12T12:41:36.933Z,22.33
2022-09-12T12:46:38.915Z,21.42
2022-09-12T12:51:49.842Z,21.07
2022-09-12T12:57:01.612Z,21.63
2022-09-12T13:02:04.856Z,21.29
2022-09-12T13:07:09.094Z,20.15
2022-09-12T13:12:19.844Z,19.74
2022-09-12T13:17:27.686Z,20.54
2022-09-12T13:22:48.859Z,21.71
2022-09-12T13:28:20.076Z,23.07
2022-09-12T13:33:33.709Z,22.75
2022-09-12T13:39:05.689Z,21.12
2022-09-12T13:44:13.215Z,19.86
2022-09-12T13:49:35.043Z,19.75
2022-09-12T13:54:38.999Z,19.35
2022-09-12T13:59:42.830Z,19.08
2022-09-12T14:05:10.418Z,18.94
2022-09-12T14:10:28.165Z,18.50
2022-09-12T14:15:36.321Z,18.24
2022-09-12T14:20:39.535Z,18.42
2022-09-12T14:25:48.019Z,18.83
2022-09-12T14:31:06.841Z,18.56
2022-09-12T14:36:12.283Z,18.82
2022-09-12T14:41:23.108Z,19.09
2022-09-12T14:46:32.903Z,18.87
2022-09-12T14:51:38.691Z,18.50
2022-09-12T14:56:53.360Z,18.13
2022-09-12T15:02:13.365Z,18.21
2022-09-12T15:07:30.240Z,18.68
2022-09-12T15:12:32.329Z,19.50
2022-09-12T15:17:34.212Z,19.75
2022-09-12T15:22:38.564Z,19.72
2022-09-12T15:27:43.100Z,19.07
2022-09-12T15:32:45.670Z,19.02
2022-09-12T15:38:01.070Z,19.01
2022-09-12T15:43:13.422Z,18.67
2022-09-12T15:48:15.421Z,18.24
2022-09-12T15:53:17.647Z,17.84
2022-09-12T15:58:19.771Z,17.57
2022-09-12T16:03:42.791Z,17.42
2022-09-12T16:08:46.592Z,17.17
2022-09-12T16:13:49.112Z,16.96
2022-09-12T16:18:52.219Z,16.74
2022-09-12T16:23:54.190Z,16.45
2022-09-12T16:28:59.709Z,16.05
2022-09-12T16:34:01.562Z,15.70
2022-09-12T16:39:04.058Z,15.47
2022-09-12T16:44:05.851Z,15.24
2022-09-12T16:49:27.698Z,15.03
2022-09-12T16:54:37.176Z,14.83
2022-09-12T16:59:39.304Z,14.65
2022-09-12T17:04:41.940Z,14.48
2022-09-12T17:09:47.854Z,14.34
2022-09-12T17:14:52.656Z,14.28
2022-09-12T17:19:54.532Z,14.20
2022-09-12T17:25:00.114Z,14.01
2022-09-12T17:30:15.023Z,13.70
2022-09-12T17:35:17.067Z,13.36
2022-09-12T17:40:19.161Z,13.12
2022-09-12T17:45:21.027Z,12.85
2022-09-12T17:50:39.494Z,12.57
2022-09-12T17:55:41.982Z,12.33
2022-09-12T18:01:02.799Z,12.09
2022-09-12T18:06:05.192Z,11.87
2022-09-12T18:11:07.558Z,11.66
2022-09-12T18:16:12.426Z,11.45
2022-09-12T18:21:14.409Z,11.32
2022-09-12T18:26:16.389Z,11.23
2022-09-12T18:31:24.270Z,11.13
2022-09-12T18:36:26.615Z,11.07
2022-09-12T18:41:29.195Z,11.04
2022-09-12T18:46:33.093Z,11.00
2022-09-12T18:51:37.257Z,10.92
2022-09-12T18:56:40.961Z,10.86
2022-09-12T19:01:43.597Z,10.77
2022-09-12T19:06:50.465Z,10.56
2022-09-12T19:11:52.738Z,10.51
2022-09-12T19:16:54.518Z,10.59
2022-09-12T19:21:56.601Z,10.50
2022-09-12T19:26:58.475Z,10.32
2022-09-12T19:32:00.456Z,10.28
2022-09-12T19:37:02.744Z,10.32
2022-09-12T19:42:04.590Z,10.17
2022-09-12T19:47:09.501Z,10.21
2022-09-12T19:52:14.359Z,10.17
2022-09-12T19:57:18.708Z,9.93
2022-09-12T20:02:20.468Z,9.83
2022-09-12T20:07:42.669Z,9.80
2022-09-12T20:12:44.813Z,9.64
2022-09-12T20:17:46.584Z,9.46
2022-09-12T20:22:52.771Z,9.32
2022-09-12T20:27:59.473Z,9.33
2022-09-12T20:33:01.906Z,9.36
2022-09-12T20:38:03.672Z,9.17
2022-09-12T20:43:05.335Z,9.03
2022-09-12T20:48:07.051Z,9.13
2022-09-12T20:53:09.097Z,9.34
2022-09-12T20:58:10.862Z,9.49
2022-09-12T21:03:14.033Z,9.24
2022-09-12T21:08:15.891Z,9.10
2022-09-12T21:13:17.652Z,9.18
2022-09-12T21:18:19.511Z,9.15
2022-09-12T21:23:41.693Z,9.11
2022-09-12T21:28:53.025Z,8.83
2022-09-12T21:33:55.872Z,8.59
2022-09-12T21:38:59.318Z,8.38
2022-09-12T21:44:01.334Z,8.26
2022-09-12T21:49:03.292Z,8.18
2022-09-12T21:54:05.418Z,8.11
2022-09-12T21:59:07.225Z,8.07
2022-09-12T22:04:10.645Z,8.13
2022-09-12T22:09:12.632Z,8.19
2022-09-12T22:14:14.752Z,8.28
2022-09-12T22:19:16.649Z,8.22
2022-09-12T22:24:27.492Z,8.19
2022-09-12T22:29:29.244Z,8.24
2022-09-12T22:34:31.549Z,8.24
2022-09-12T22:39:33.279Z,8.26
2022-09-12T22:44:35.752Z,8.13
2022-09-12T22:49:37.480Z,8.03
2022-09-12T22:54:39.397Z,7.94
2022-09-12T22:59:41.269Z,7.90
2022-09-12T23:04:43.467Z,7.87
2022-09-12T23:09:46.368Z,7.80
2022-09-12T23:14:48.167Z,7.72
2022-09-12T23:19:49.858Z,7.71
2022-09-12T23:24:51.543Z,7.63
2022-09-12T23:29:53.957Z,7.52
2022-09-12T23:34:55.630Z,7.49
2022-09-12T23:39:57.518Z,7.62
2022-09-12T23:44:59.311Z,7.72
2022-09-12T23:50:01.142Z,7.60
2022-09-12T23:55:03.432Z,7.47
